sensor_id;sensor_type;location;lat;lon;timestamp;temperature;humidity
41953;DHT22;63613;28.200;112.870;2023-03-01T00:02:10;16.30;67.40
41953;DHT22;63613;28.200;112.870;2023-03-01T00:04:37;16.30;67.50
41953;DHT22;63613;28.200;112.870;2023-03-01T00:07:06;16.30;67.40
41953;DHT22;63613;28.200;112.870;2023-03-01T00:09:35;16.30;67.40
41953;DHT22;63613;28.200;112.870;2023-03-01T00:12:02;16.30;67.50
41953;DHT22;63613;28.200;112.870;2023-03-01T00:14:29;16.30;67.50
41953;DHT22;63613;28.200;112.870;2023-03-01T00:16:56;16.30;67.50
41953;DHT22;63613;28.200;112.870;2023-03-01T00:19:23;16.30;67.40
41953;DHT22;63613;28.200;112.870;2023-03-01T00:21:50;16.30;67.30
41953;DHT22;63613;28.200;112.870;2023-03-01T00:24:17;16.30;67.20
41953;DHT22;63613;28.200;112.870;2023-03-01T00:26:44;16.30;67.20
41953;DHT22;63613;28.200;112.870;2023-03-01T00:29:11;16.30;67.10
41953;DHT22;63613;28.200;112.870;2023-03-01T00:31:37;16.30;67.00
41953;DHT22;63613;28.200;112.870;2023-03-01T00:34:24;16.30;66.90
41953;DHT22;63613;28.200;112.870;2023-03-01T00:36:51;16.30;67.20
41953;DHT22;63613;28.200;112.870;2023-03-01T00:39:18;16.30;67.40
41953;DHT22;63613;28.200;112.870;2023-03-01T00:41:45;16.30;67.60
41953;DHT22;63613;28.200;112.870;2023-03-01T00:44:12;16.40;67.70
41953;DHT22;63613;28.200;112.870;2023-03-01T00:46:39;16.40;67.70
41953;DHT22;63613;28.200;112.870;2023-03-01T00:49:06;16.40;67.70
41953;DHT22;63613;28.200;112.870;2023-03-01T00:51:33;16.40;67.80
41953;DHT22;63613;28.200;112.870;2023-03-01T00:54:01;16.40;68.00
41953;DHT22;63613;28.200;112.870;2023-03-01T00:56:29;16.50;68.20
41953;DHT22;63613;28.200;112.870;2023-03-01T00:58:56;16.50;68.30
41953;DHT22;63613;28.200;112.870;2023-03-01T01:01:25;16.50;68.30
41953;DHT22;63613;28.200;112.870;2023-03-01T01:04:01;16.60;68.40
41953;DHT22;63613;28.200;112.870;2023-03-01T01:06:34;16.60;68.60
41953;DHT22;63613;28.200;112.870;2023-03-01T01:09:03;16.60;69.00
41953;DHT22;63613;28.200;112.870;2023-03-01T01:11:31;16.60;68.90
41953;DHT22;63613;28.200;112.870;2023-03-01T01:13:58;16.60;68.90
41953;DHT22;63613;28.200;112.870;2023-03-01T01:16:27;16.60;69.00
41953;DHT22;63613;28.200;112.870;2023-03-01T01:18:54;16.80;72.20
41953;DHT22;63613;28.200;112.870;2023-03-01T01:21:23;16.80;71.30
41953;DHT22;63613;28.200;112.870;2023-03-01T01:23:53;16.80;71.10
41953;DHT22;63613;28.200;112.870;2023-03-01T01:26:26;16.80;70.50
41953;DHT22;63613;28.200;112.870;2023-03-01T01:28:53;16.80;69.00
41953;DHT22;63613;28.200;112.870;2023-03-01T01:31:22;16.70;67.60
41953;DHT22;63613;28.200;112.870;2023-03-01T01:33:52;16.80;67.50
41953;DHT22;63613;28.200;112.870;2023-03-01T01:36:20;16.80;66.80
41953;DHT22;63613;28.200;112.870;2023-03-01T01:38:47;16.80;66.10
41953;DHT22;63613;28.200;112.870;2023-03-01T01:41:16;16.80;65.50
41953;DHT22;63613;28.200;112.870;2023-03-01T01:43:49;16.80;65.60
41953;DHT22;63613;28.200;112.870;2023-03-01T01:46:29;16.80;65.20
41953;DHT22;63613;28.200;112.870;2023-03-01T01:49:01;16.80;65.20
41953;DHT22;63613;28.200;112.870;2023-03-01T01:51:37;16.80;65.40
41953;DHT22;63613;28.200;112.870;2023-03-01T01:54:44;16.90;64.90
41953;DHT22;63613;28.200;112.870;2023-03-01T01:57:16;16.90;64.40
41953;DHT22;63613;28.200;112.870;2023-03-01T01:59:48;16.90;63.80
41953;DHT22;63613;28.200;112.870;2023-03-01T02:02:16;16.90;63.60
41953;DHT22;63613;28.200;112.870;2023-03-01T02:04:43;16.90;63.10
41953;DHT22;63613;28.200;112.870;2023-03-01T02:07:19;16.90;63.00
41953;DHT22;63613;28.200;112.870;2023-03-01T02:09:49;16.90;62.40
41953;DHT22;63613;28.200;112.870;2023-03-01T02:12:19;16.90;62.20
41953;DHT22;63613;28.200;112.870;2023-03-01T02:14:46;16.90;62.10
41953;DHT22;63613;28.200;112.870;2023-03-01T02:17:15;16.90;61.90
41953;DHT22;63613;28.200;112.870;2023-03-01T02:20:02;16.90;61.90
41953;DHT22;63613;28.200;112.870;2023-03-01T02:22:36;16.80;61.70
41953;DHT22;63613;28.200;112.870;2023-03-01T02:25:09;16.80;61.80
41953;DHT22;63613;28.200;112.870;2023-03-01T02:30:35;16.80;61.10
41953;DHT22;63613;28.200;112.870;2023-03-01T02:33:04;16.90;60.80
41953;DHT22;63613;28.200;112.870;2023-03-01T02:35:34;16.80;61.20
41953;DHT22;63613;28.200;112.870;2023-03-01T02:38:03;16.90;61.20
41953;DHT22;63613;28.200;112.870;2023-03-01T02:40:34;16.90;60.70
41953;DHT22;63613;28.200;112.870;2023-03-01T02:43:04;17.00;61.10
41953;DHT22;63613;28.200;112.870;2023-03-01T02:45:35;17.10;60.90
41953;DHT22;63613;28.200;112.870;2023-03-01T02:48:02;17.00;61.30
41953;DHT22;63613;28.200;112.870;2023-03-01T02:55:32;17.00;60.50
41953;DHT22;63613;28.200;112.870;2023-03-01T02:58:02;17.00;60.30
41953;DHT22;63613;28.200;112.870;2023-03-01T03:00:43;17.00;60.20
41953;DHT22;63613;28.200;112.870;2023-03-01T03:03:20;17.00;60.20
41953;DHT22;63613;28.200;112.870;2023-03-01T03:05:47;17.10;60.20
41953;DHT22;63613;28.200;112.870;2023-03-01T03:08:14;17.10;60.60
41953;DHT22;63613;28.200;112.870;2023-03-01T03:10:47;17.10;60.70
41953;DHT22;63613;28.200;112.870;2023-03-01T03:13:15;17.10;60.40
41953;DHT22;63613;28.200;112.870;2023-03-01T03:15:43;17.10;60.10
41953;DHT22;63613;28.200;112.870;2023-03-01T03:18:14;17.10;60.00
41953;DHT22;63613;28.200;112.870;2023-03-01T03:20:42;17.10;59.60
41953;DHT22;63613;28.200;112.870;2023-03-01T03:23:13;17.10;59.50
41953;DHT22;63613;28.200;112.870;2023-03-01T03:25:40;17.10;59.40
41953;DHT22;63613;28.200;112.870;2023-03-01T03:28:07;17.10;59.40
41953;DHT22;63613;28.200;112.870;2023-03-01T03:30:39;17.10;59.40
41953;DHT22;63613;28.200;112.870;2023-03-01T03:33:06;17.10;59.50
41953;DHT22;63613;28.200;112.870;2023-03-01T03:35:39;17.10;59.40
41953;DHT22;63613;28.200;112.870;2023-03-01T03:38:08;17.10;59.40
41953;DHT22;63613;28.200;112.870;2023-03-01T03:40:47;17.10;59.30
41953;DHT22;63613;28.200;112.870;2023-03-01T03:43:17;17.10;59.20
41953;DHT22;63613;28.200;112.870;2023-03-01T03:45:45;17.10;59.20
41953;DHT22;63613;28.200;112.870;2023-03-01T03:48:13;17.10;59.20
41953;DHT22;63613;28.200;112.870;2023-03-01T03:50:41;17.10;59.30
41953;DHT22;63613;28.200;112.870;2023-03-01T03:53:10;17.10;59.20
41953;DHT22;63613;28.200;112.870;2023-03-01T03:55:38;17.10;59.20
41953;DHT22;63613;28.200;112.870;2023-03-01T03:58:09;17.10;59.00
41953;DHT22;63613;28.200;112.870;2023-03-01T04:00:38;17.10;59.30
41953;DHT22;63613;28.200;112.870;2023-03-01T04:03:05;17.10;59.60
41953;DHT22;63613;28.200;112.870;2023-03-01T04:05:32;17.10;59.60
41953;DHT22;63613;28.200;112.870;2023-03-01T04:07:59;17.10;59.50
41953;DHT22;63613;28.200;112.870;2023-03-01T04:10:39;17.10;59.50
41953;DHT22;63613;28.200;112.870;2023-03-01T04:13:07;17.10;59.50
41953;DHT22;63613;28.200;112.870;2023-03-01T04:15:34;17.10;59.10
41953;DHT22;63613;28.200;112.870;2023-03-01T04:18:02;17.10;59.40
41953;DHT22;63613;28.200;112.870;2023-03-01T04:20:34;17.10;59.10
41953;DHT22;63613;28.200;112.870;2023-03-01T04:23:08;17.20;59.30
41953;DHT22;63613;28.200;112.870;2023-03-01T04:25:58;17.10;59.00
41953;DHT22;63613;28.200;112.870;2023-03-01T04:28:29;17.20;59.30
41953;DHT22;63613;28.200;112.870;2023-03-01T04:31:03;17.20;59.30
41953;DHT22;63613;28.200;112.870;2023-03-01T04:34:01;17.20;59.20
41953;DHT22;63613;28.200;112.870;2023-03-01T04:36:29;17.20;59.10
41953;DHT22;63613;28.200;112.870;2023-03-01T04:38:56;17.20;59.10
41953;DHT22;63613;28.200;112.870;2023-03-01T04:41:24;17.20;59.00
41953;DHT22;63613;28.200;112.870;2023-03-01T04:43:52;17.20;59.20
41953;DHT22;63613;28.200;112.870;2023-03-01T04:46:20;17.20;59.00
41953;DHT22;63613;28.200;112.870;2023-03-01T04:48:48;17.20;58.90
41953;DHT22;63613;28.200;112.870;2023-03-01T04:51:16;17.20;58.80
41953;DHT22;63613;28.200;112.870;2023-03-01T04:53:44;17.20;59.00
41953;DHT22;63613;28.200;112.870;2023-03-01T04:56:11;17.10;58.90
41953;DHT22;63613;28.200;112.870;2023-03-01T04:58:40;17.20;58.80
41953;DHT22;63613;28.200;112.870;2023-03-01T05:01:17;17.10;58.60
41953;DHT22;63613;28.200;112.870;2023-03-01T05:03:50;17.10;58.70
41953;DHT22;63613;28.200;112.870;2023-03-01T05:06:18;17.10;58.10
41953;DHT22;63613;28.200;112.870;2023-03-01T05:08:45;17.10;58.50
41953;DHT22;63613;28.200;112.870;2023-03-01T05:11:12;17.10;58.50
41953;DHT22;63613;28.200;112.870;2023-03-01T05:13:40;17.10;58.40
41953;DHT22;63613;28.200;112.870;2023-03-01T05:16:09;17.10;58.10
41953;DHT22;63613;28.200;112.870;2023-03-01T05:18:37;17.10;58.10
41953;DHT22;63613;28.200;112.870;2023-03-01T05:21:10;17.20;57.80
41953;DHT22;63613;28.200;112.870;2023-03-01T05:23:37;17.20;57.70
41953;DHT22;63613;28.200;112.870;2023-03-01T05:26:05;17.30;57.40
41953;DHT22;63613;28.200;112.870;2023-03-01T05:28:33;17.40;57.20
41953;DHT22;63613;28.200;112.870;2023-03-01T05:31:20;17.50;56.80
41953;DHT22;63613;28.200;112.870;2023-03-01T05:33:47;17.60;56.60
41953;DHT22;63613;28.200;112.870;2023-03-01T05:36:14;17.60;56.50
41953;DHT22;63613;28.200;112.870;2023-03-01T05:39:01;17.60;56.50
41953;DHT22;63613;28.200;112.870;2023-03-01T05:41:27;17.50;56.60
41953;DHT22;63613;28.200;112.870;2023-03-01T05:44:14;17.60;56.50
41953;DHT22;63613;28.200;112.870;2023-03-01T05:46:42;17.60;56.40
41953;DHT22;63613;28.200;112.870;2023-03-01T05:49:08;17.60;56.50
41953;DHT22;63613;28.200;112.870;2023-03-01T05:51:35;17.50;56.50
41953;DHT22;63613;28.200;112.870;2023-03-01T05:54:02;17.50;56.00
41953;DHT22;63613;28.200;112.870;2023-03-01T05:56:36;17.40;56.40
41953;DHT22;63613;28.200;112.870;2023-03-01T05:59:04;17.40;54.80
41953;DHT22;63613;28.200;112.870;2023-03-01T06:01:50;17.40;55.50
41953;DHT22;63613;28.200;112.870;2023-03-01T06:04:17;17.40;55.50
41953;DHT22;63613;28.200;112.870;2023-03-01T06:06:44;17.40;54.90
41953;DHT22;63613;28.200;112.870;2023-03-01T06:09:11;17.30;54.20
41953;DHT22;63613;28.200;112.870;2023-03-01T06:11:37;17.30;54.60
41953;DHT22;63613;28.200;112.870;2023-03-01T06:14:24;17.30;54.40
41953;DHT22;63613;28.200;112.870;2023-03-01T06:16:51;17.30;54.70
41953;DHT22;63613;28.200;112.870;2023-03-01T06:19:18;17.20;54.70
41953;DHT22;63613;28.200;112.870;2023-03-01T06:21:45;17.30;55.00
41953;DHT22;63613;28.200;112.870;2023-03-01T06:24:12;17.30;55.10
41953;DHT22;63613;28.200;112.870;2023-03-01T06:26:38;17.30;54.90
41953;DHT22;63613;28.200;112.870;2023-03-01T06:29:06;17.30;54.90
41953;DHT22;63613;28.200;112.870;2023-03-01T06:31:54;17.30;54.90
41953;DHT22;63613;28.200;112.870;2023-03-01T06:34:21;17.30;54.80
41953;DHT22;63613;28.200;112.870;2023-03-01T06:36:48;17.30;55.10
41953;DHT22;63613;28.200;112.870;2023-03-01T06:39:15;17.30;55.20
41953;DHT22;63613;28.200;112.870;2023-03-01T06:41:44;17.30;55.40
41953;DHT22;63613;28.200;112.870;2023-03-01T06:44:11;17.30;55.70
41953;DHT22;63613;28.200;112.870;2023-03-01T06:46:40;17.30;55.80
41953;DHT22;63613;28.200;112.870;2023-03-01T06:49:07;17.20;55.90
41953;DHT22;63613;28.200;112.870;2023-03-01T06:51:36;17.20;56.20
41953;DHT22;63613;28.200;112.870;2023-03-01T06:54:04;17.20;56.40
41953;DHT22;63613;28.200;112.870;2023-03-01T06:56:31;17.10;56.50
41953;DHT22;63613;28.200;112.870;2023-03-01T06:58:58;17.10;56.50
41953;DHT22;63613;28.200;112.870;2023-03-01T07:01:25;17.10;56.60
41953;DHT22;63613;28.200;112.870;2023-03-01T07:03:52;17.10;56.80
41953;DHT22;63613;28.200;112.870;2023-03-01T07:06:19;17.10;56.70
41953;DHT22;63613;28.200;112.870;2023-03-01T07:08:46;17.10;56.70
41953;DHT22;63613;28.200;112.870;2023-03-01T07:11:14;17.10;56.80
41953;DHT22;63613;28.200;112.870;2023-03-01T07:13:41;17.00;57.00
41953;DHT22;63613;28.200;112.870;2023-03-01T07:16:08;17.00;57.10
41953;DHT22;63613;28.200;112.870;2023-03-01T07:18:35;17.00;57.20
41953;DHT22;63613;28.200;112.870;2023-03-01T07:21:09;16.90;57.50
41953;DHT22;63613;28.200;112.870;2023-03-01T07:23:37;16.90;57.60
41953;DHT22;63613;28.200;112.870;2023-03-01T07:26:04;17.00;57.60
41953;DHT22;63613;28.200;112.870;2023-03-01T07:28:31;16.90;57.70
41953;DHT22;63613;28.200;112.870;2023-03-01T07:31:03;16.90;57.90
41953;DHT22;63613;28.200;112.870;2023-03-01T07:33:30;16.90;58.80
41953;DHT22;63613;28.200;112.870;2023-03-01T07:36:04;16.90;60.10
41953;DHT22;63613;28.200;112.870;2023-03-01T07:38:31;17.00;60.70
41953;DHT22;63613;28.200;112.870;2023-03-01T07:41:02;16.90;59.90
41953;DHT22;63613;28.200;112.870;2023-03-01T07:43:30;16.90;59.80
41953;DHT22;63613;28.200;112.870;2023-03-01T07:46:03;16.90;59.70
41953;DHT22;63613;28.200;112.870;2023-03-01T07:48:30;16.90;59.60
41953;DHT22;63613;28.200;112.870;2023-03-01T07:51:02;16.80;59.50
41953;DHT22;63613;28.200;112.870;2023-03-01T07:53:30;16.90;59.70
41953;DHT22;63613;28.200;112.870;2023-03-01T07:56:16;16.90;59.80
41953;DHT22;63613;28.200;112.870;2023-03-01T07:58:45;16.80;59.70
41953;DHT22;63613;28.200;112.870;2023-03-01T08:01:16;16.80;60.20
41953;DHT22;63613;28.200;112.870;2023-03-01T08:03:43;16.80;60.10
41953;DHT22;63613;28.200;112.870;2023-03-01T08:06:12;16.80;60.00
41953;DHT22;63613;28.200;112.870;2023-03-01T08:08:39;16.80;60.10
41953;DHT22;63613;28.200;112.870;2023-03-01T08:11:07;16.80;59.80
41953;DHT22;63613;28.200;112.870;2023-03-01T08:13:34;16.80;59.80
41953;DHT22;63613;28.200;112.870;2023-03-01T08:16:19;16.80;59.90
41953;DHT22;63613;28.200;112.870;2023-03-01T08:18:47;16.70;59.90
41953;DHT22;63613;28.200;112.870;2023-03-01T08:21:16;16.70;60.00
41953;DHT22;63613;28.200;112.870;2023-03-01T08:23:43;16.60;60.10
41953;DHT22;63613;28.200;112.870;2023-03-01T08:26:13;16.70;60.10
41953;DHT22;63613;28.200;112.870;2023-03-01T08:28:41;16.70;60.30
41953;DHT22;63613;28.200;112.870;2023-03-01T08:31:32;16.70;60.40
41953;DHT22;63613;28.200;112.870;2023-03-01T08:34:04;16.70;60.60
41953;DHT22;63613;28.200;112.870;2023-03-01T08:36:35;16.60;61.00
41953;DHT22;63613;28.200;112.870;2023-03-01T08:39:04;16.60;61.20
41953;DHT22;63613;28.200;112.870;2023-03-01T08:41:31;16.60;61.50
41953;DHT22;63613;28.200;112.870;2023-03-01T08:43:58;16.50;61.70
41953;DHT22;63613;28.200;112.870;2023-03-01T08:46:28;16.50;61.80
41953;DHT22;63613;28.200;112.870;2023-03-01T08:48:56;16.60;61.90
41953;DHT22;63613;28.200;112.870;2023-03-01T08:51:25;16.40;62.20
41953;DHT22;63613;28.200;112.870;2023-03-01T08:53:52;16.40;62.20
41953;DHT22;63613;28.200;112.870;2023-03-01T08:56:19;16.50;62.20
41953;DHT22;63613;28.200;112.870;2023-03-01T08:58:47;16.50;62.20
41953;DHT22;63613;28.200;112.870;2023-03-01T09:01:16;16.50;62.30
41953;DHT22;63613;28.200;112.870;2023-03-01T09:03:44;16.50;62.40
41953;DHT22;63613;28.200;112.870;2023-03-01T09:06:11;16.40;62.40
41953;DHT22;63613;28.200;112.870;2023-03-01T09:08:40;16.40;62.50
41953;DHT22;63613;28.200;112.870;2023-03-01T09:11:09;16.50;62.70
41953;DHT22;63613;28.200;112.870;2023-03-01T09:13:36;16.40;62.70
41953;DHT22;63613;28.200;112.870;2023-03-01T09:16:05;16.50;62.70
41953;DHT22;63613;28.200;112.870;2023-03-01T09:18:54;16.50;62.90
41953;DHT22;63613;28.200;112.870;2023-03-01T09:21:22;16.50;62.80
41953;DHT22;63613;28.200;112.870;2023-03-01T09:23:50;16.40;62.70
41953;DHT22;63613;28.200;112.870;2023-03-01T09:26:21;16.40;62.70
41953;DHT22;63613;28.200;112.870;2023-03-01T09:28:53;16.40;62.90
41953;DHT22;63613;28.200;112.870;2023-03-01T09:31:22;16.40;63.00
41953;DHT22;63613;28.200;112.870;2023-03-01T09:33:51;16.40;63.20
41953;DHT22;63613;28.200;112.870;2023-03-01T09:36:20;16.40;63.40
41953;DHT22;63613;28.200;112.870;2023-03-01T09:38:48;16.30;63.70
41953;DHT22;63613;28.200;112.870;2023-03-01T09:46:53;16.30;64.30
41953;DHT22;63613;28.200;112.870;2023-03-01T09:49:42;16.30;64.40
41953;DHT22;63613;28.200;112.870;2023-03-01T09:52:38;16.30;64.70
41953;DHT22;63613;28.200;112.870;2023-03-01T10:01:04;16.40;65.80
41953;DHT22;63613;28.200;112.870;2023-03-01T10:03:43;16.30;66.20
41953;DHT22;63613;28.200;112.870;2023-03-01T10:06:30;16.30;66.50
41953;DHT22;63613;28.200;112.870;2023-03-01T10:11:40;16.30;67.00
41953;DHT22;63613;28.200;112.870;2023-03-01T10:17:05;16.30;67.50
41953;DHT22;63613;28.200;112.870;2023-03-01T10:19:45;16.30;67.40
41953;DHT22;63613;28.200;112.870;2023-03-01T10:22:22;16.30;67.70
41953;DHT22;63613;28.200;112.870;2023-03-01T10:24:52;16.20;67.70
41953;DHT22;63613;28.200;112.870;2023-03-01T10:30:22;16.30;67.90
41953;DHT22;63613;28.200;112.870;2023-03-01T10:32:57;16.20;67.90
41953;DHT22;63613;28.200;112.870;2023-03-01T10:35:28;16.30;68.00
41953;DHT22;63613;28.200;112.870;2023-03-01T10:38:09;16.30;68.10
41953;DHT22;63613;28.200;112.870;2023-03-01T10:40:46;16.20;68.20
41953;DHT22;63613;28.200;112.870;2023-03-01T10:43:16;16.20;68.50
41953;DHT22;63613;28.200;112.870;2023-03-01T10:45:43;16.20;68.40
41953;DHT22;63613;28.200;112.870;2023-03-01T10:48:19;16.30;68.50
41953;DHT22;63613;28.200;112.870;2023-03-01T10:51:04;16.20;68.50
41953;DHT22;63613;28.200;112.870;2023-03-01T10:53:57;16.20;68.80
41953;DHT22;63613;28.200;112.870;2023-03-01T10:56:26;16.20;68.80
41953;DHT22;63613;28.200;112.870;2023-03-01T10:59:10;16.20;69.80
41953;DHT22;63613;28.200;112.870;2023-03-01T11:01:46;16.10;69.70
41953;DHT22;63613;28.200;112.870;2023-03-01T11:04:29;16.10;69.40
41953;DHT22;63613;28.200;112.870;2023-03-01T11:07:00;16.10;69.30
41953;DHT22;63613;28.200;112.870;2023-03-01T11:09:33;16.20;69.20
41953;DHT22;63613;28.200;112.870;2023-03-01T11:12:14;16.20;69.00
41953;DHT22;63613;28.200;112.870;2023-03-01T11:14:54;16.20;68.90
41953;DHT22;63613;28.200;112.870;2023-03-01T11:17:29;16.20;69.00
41953;DHT22;63613;28.200;112.870;2023-03-01T11:22:31;16.20;69.10
41953;DHT22;63613;28.200;112.870;2023-03-01T11:24:59;16.20;69.00
41953;DHT22;63613;28.200;112.870;2023-03-01T11:27:47;16.20;69.00
41953;DHT22;63613;28.200;112.870;2023-03-01T11:33:49;16.20;69.10
41953;DHT22;63613;28.200;112.870;2023-03-01T11:38:57;16.10;69.20
41953;DHT22;63613;28.200;112.870;2023-03-01T11:41:28;16.20;69.10
41953;DHT22;63613;28.200;112.870;2023-03-01T11:44:11;16.10;69.20
41953;DHT22;63613;28.200;112.870;2023-03-01T11:49:30;16.10;69.90
41953;DHT22;63613;28.200;112.870;2023-03-01T11:55:55;16.10;70.60
41953;DHT22;63613;28.200;112.870;2023-03-01T11:58:48;16.10;70.30
41953;DHT22;63613;28.200;112.870;2023-03-01T12:07:31;16.10;70.10
41953;DHT22;63613;28.200;112.870;2023-03-01T12:09:45;16.10;70.20
41953;DHT22;63613;28.200;112.870;2023-03-01T12:12:35;16.10;70.00
41953;DHT22;63613;28.200;112.870;2023-03-01T12:15:11;16.10;69.80
41953;DHT22;63613;28.200;112.870;2023-03-01T12:18:08;16.10;69.70
41953;DHT22;63613;28.200;112.870;2023-03-01T12:23:51;16.10;69.50
41953;DHT22;63613;28.200;112.870;2023-03-01T12:27:07;16.10;69.50
41953;DHT22;63613;28.200;112.870;2023-03-01T12:30:05;16.10;69.70
41953;DHT22;63613;28.200;112.870;2023-03-01T12:32:40;16.10;69.80
41953;DHT22;63613;28.200;112.870;2023-03-01T12:35:27;16.10;69.70
41953;DHT22;63613;28.200;112.870;2023-03-01T12:38:21;16.10;69.60
41953;DHT22;63613;28.200;112.870;2023-03-01T12:41:20;16.20;69.60
41953;DHT22;63613;28.200;112.870;2023-03-01T12:49:45;16.10;69.20
41953;DHT22;63613;28.200;112.870;2023-03-01T12:52:35;16.10;69.20
41953;DHT22;63613;28.200;112.870;2023-03-01T12:55:08;16.10;69.20
41953;DHT22;63613;28.200;112.870;2023-03-01T12:57:53;16.10;69.10
41953;DHT22;63613;28.200;112.870;2023-03-01T13:01:31;16.10;69.00
41953;DHT22;63613;28.200;112.870;2023-03-01T13:09:34;16.10;68.90
41953;DHT22;63613;28.200;112.870;2023-03-01T13:15:35;16.10;68.60
41953;DHT22;63613;28.200;112.870;2023-03-01T13:20:56;16.10;68.50
41953;DHT22;63613;28.200;112.870;2023-03-01T13:23:33;16.10;68.40
41953;DHT22;63613;28.200;112.870;2023-03-01T13:26:07;16.10;68.30
41953;DHT22;63613;28.200;112.870;2023-03-01T13:33:58;16.20;67.80
41953;DHT22;63613;28.200;112.870;2023-03-01T13:39:30;16.20;67.70
41953;DHT22;63613;28.200;112.870;2023-03-01T13:42:00;16.10;67.60
41953;DHT22;63613;28.200;112.870;2023-03-01T13:44:37;16.20;67.60
41953;DHT22;63613;28.200;112.870;2023-03-01T13:47:17;16.20;67.60
41953;DHT22;63613;28.200;112.870;2023-03-01T13:50:01;16.10;67.70
41953;DHT22;63613;28.200;112.870;2023-03-01T13:52:42;16.20;67.60
41953;DHT22;63613;28.200;112.870;2023-03-01T13:57:59;16.20;67.70
41953;DHT22;63613;28.200;112.870;2023-03-01T14:03:10;16.20;67.70
41953;DHT22;63613;28.200;112.870;2023-03-01T14:05:38;16.10;67.60
41953;DHT22;63613;28.200;112.870;2023-03-01T14:08:23;16.20;67.60
41953;DHT22;63613;28.200;112.870;2023-03-01T14:11:28;16.20;67.60
41953;DHT22;63613;28.200;112.870;2023-03-01T14:17:18;16.20;67.70
41953;DHT22;63613;28.200;112.870;2023-03-01T14:19:48;16.10;67.70
41953;DHT22;63613;28.200;112.870;2023-03-01T14:22:26;16.10;67.70
41953;DHT22;63613;28.200;112.870;2023-03-01T14:27:44;16.10;67.60
41953;DHT22;63613;28.200;112.870;2023-03-01T14:30:26;16.10;67.70
41953;DHT22;63613;28.200;112.870;2023-03-01T14:32:58;16.10;67.70
41953;DHT22;63613;28.200;112.870;2023-03-01T14:35:34;16.10;67.70
41953;DHT22;63613;28.200;112.870;2023-03-01T14:38:02;16.10;67.80
41953;DHT22;63613;28.200;112.870;2023-03-01T14:40:35;16.10;67.80
41953;DHT22;63613;28.200;112.870;2023-03-01T14:43:13;16.10;67.80
41953;DHT22;63613;28.200;112.870;2023-03-01T14:45:49;16.10;67.90
41953;DHT22;63613;28.200;112.870;2023-03-01T14:48:17;16.10;67.90
41953;DHT22;63613;28.200;112.870;2023-03-01T14:50:47;16.10;67.90
41953;DHT22;63613;28.200;112.870;2023-03-01T14:53:24;16.20;67.90
41953;DHT22;63613;28.200;112.870;2023-03-01T14:55:59;16.20;68.00
41953;DHT22;63613;28.200;112.870;2023-03-01T14:58:28;16.20;68.00
41953;DHT22;63613;28.200;112.870;2023-03-01T15:01:10;16.10;68.00
41953;DHT22;63613;28.200;112.870;2023-03-01T15:06:15;16.20;68.10
41953;DHT22;63613;28.200;112.870;2023-03-01T15:08:47;16.20;68.10
41953;DHT22;63613;28.200;112.870;2023-03-01T15:11:22;16.20;68.10
41953;DHT22;63613;28.200;112.870;2023-03-01T15:13:52;16.20;68.10
41953;DHT22;63613;28.200;112.870;2023-03-01T15:16:33;16.20;68.20
41953;DHT22;63613;28.200;112.870;2023-03-01T15:19:20;16.20;68.10
41953;DHT22;63613;28.200;112.870;2023-03-01T15:21:50;16.20;68.20
41953;DHT22;63613;28.200;112.870;2023-03-01T15:24:22;16.20;68.20
41953;DHT22;63613;28.200;112.870;2023-03-01T15:27:17;16.20;68.20
41953;DHT22;63613;28.200;112.870;2023-03-01T15:29:56;16.20;68.30
41953;DHT22;63613;28.200;112.870;2023-03-01T15:32:35;16.20;68.30
41953;DHT22;63613;28.200;112.870;2023-03-01T15:38:00;16.20;68.40
41953;DHT22;63613;28.200;112.870;2023-03-01T15:40:29;16.20;68.60
41953;DHT22;63613;28.200;112.870;2023-03-01T15:43:05;16.20;68.60
41953;DHT22;63613;28.200;112.870;2023-03-01T15:45:33;16.20;68.60
41953;DHT22;63613;28.200;112.870;2023-03-01T15:48:21;16.20;68.70
41953;DHT22;63613;28.200;112.870;2023-03-01T15:50:56;16.20;68.70
41953;DHT22;63613;28.200;112.870;2023-03-01T15:53:23;16.20;68.80
41953;DHT22;63613;28.200;112.870;2023-03-01T15:55:50;16.20;68.70
41953;DHT22;63613;28.200;112.870;2023-03-01T15:58:26;16.20;68.80
41953;DHT22;63613;28.200;112.870;2023-03-01T16:00:53;16.20;68.70
41953;DHT22;63613;28.200;112.870;2023-03-01T16:03:23;16.20;68.70
41953;DHT22;63613;28.200;112.870;2023-03-01T16:05:51;16.20;68.70
41953;DHT22;63613;28.200;112.870;2023-03-01T16:08:22;16.20;68.70
41953;DHT22;63613;28.200;112.870;2023-03-01T16:10:49;16.20;68.80
41953;DHT22;63613;28.200;112.870;2023-03-01T16:13:19;16.20;68.80
41953;DHT22;63613;28.200;112.870;2023-03-01T16:15:47;16.20;68.90
41953;DHT22;63613;28.200;112.870;2023-03-01T16:18:14;16.20;68.80
41953;DHT22;63613;28.200;112.870;2023-03-01T16:20:43;16.20;68.80
41953;DHT22;63613;28.200;112.870;2023-03-01T16:23:30;16.20;68.80
41953;DHT22;63613;28.200;112.870;2023-03-01T16:26:00;16.20;68.90
41953;DHT22;63613;28.200;112.870;2023-03-01T16:28:28;16.20;68.90
41953;DHT22;63613;28.200;112.870;2023-03-01T16:31:20;16.30;68.90
41953;DHT22;63613;28.200;112.870;2023-03-01T16:33:48;16.20;68.90
41953;DHT22;63613;28.200;112.870;2023-03-01T16:36:20;16.20;68.80
41953;DHT22;63613;28.200;112.870;2023-03-01T16:38:50;16.20;68.90
41953;DHT22;63613;28.200;112.870;2023-03-01T16:41:20;16.20;68.90
41953;DHT22;63613;28.200;112.870;2023-03-01T16:43:49;16.20;68.90
41953;DHT22;63613;28.200;112.870;2023-03-01T16:46:19;16.20;69.00
41953;DHT22;63613;28.200;112.870;2023-03-01T16:48:47;16.20;68.90
41953;DHT22;63613;28.200;112.870;2023-03-01T16:51:14;16.30;68.90
41953;DHT22;63613;28.200;112.870;2023-03-01T16:53:51;16.30;68.90
41953;DHT22;63613;28.200;112.870;2023-03-01T16:56:18;16.30;68.90
41953;DHT22;63613;28.200;112.870;2023-03-01T16:58:45;16.30;68.90
41953;DHT22;63613;28.200;112.870;2023-03-01T17:01:18;16.30;68.90
41953;DHT22;63613;28.200;112.870;2023-03-01T17:03:46;16.30;68.80
41953;DHT22;63613;28.200;112.870;2023-03-01T17:06:16;16.30;68.80
41953;DHT22;63613;28.200;112.870;2023-03-01T17:08:44;16.30;68.70
41953;DHT22;63613;28.200;112.870;2023-03-01T17:11:14;16.30;68.70